sensor_id;sensor_type;location;lat;lon;timestamp;pressure;altitude;pressure_sealevel;temperature;humidity
15880;BME280;61999;51.514;14.614;2022-08-19T00:01:29;99042.97;;;19.32;48.12
15880;BME280;61999;51.514;14.614;2022-08-19T00:03:59;99041.53;;;19.30;48.57
15880;BME280;61999;51.514;14.614;2022-08-19T00:06:29;99059.22;;;19.24;48.29
15880;BME280;61999;51.514;14.614;2022-08-19T00:08:58;99055.31;;;19.20;48.34
15880;BME280;61999;51.514;14.614;2022-08-19T00:11:27;99045.84;;;19.17;48.41
15880;BME280;61999;51.514;14.614;2022-08-19T00:13:56;99042.16;;;19.12;48.58
15880;BME280;61999;51.514;14.614;2022-08-19T00:16:25;99056.94;;;19.08;48.34
15880;BME280;61999;51.514;14.614;2022-08-19T00:18:54;99053.22;;;19.02;48.22
15880;BME280;61999;51.514;14.614;2022-08-19T00:21:24;99045.38;;;19.01;48.55
15880;BME280;61999;51.514;14.614;2022-08-19T00:23:54;99049.91;;;18.93;48.87
15880;BME280;61999;51.514;14.614;2022-08-19T00:26:27;99050.31;;;18.90;48.83
15880;BME280;61999;51.514;14.614;2022-08-19T00:28:56;99056.88;;;18.88;49.31
15880;BME280;61999;51.514;14.614;2022-08-19T00:31:23;99051.09;;;18.84;49.26
15880;BME280;61999;51.514;14.614;2022-08-19T00:33:54;99048.81;;;18.81;48.95
15880;BME280;61999;51.514;14.614;2022-08-19T00:36:22;99056.22;;;18.79;49.09
15880;BME280;61999;51.514;14.614;2022-08-19T00:38:50;99052.94;;;18.77;49.13
15880;BME280;61999;51.514;14.614;2022-08-19T00:41:23;99050.25;;;18.77;49.29
15880;BME280;61999;51.514;14.614;2022-08-19T00:44:04;99044.50;;;18.73;48.71
15880;BME280;61999;51.514;14.614;2022-08-19T00:46:35;99049.41;;;18.70;48.89
15880;BME280;61999;51.514;14.614;2022-08-19T00:49:11;99043.44;;;18.68;49.22
15880;BME280;61999;51.514;14.614;2022-08-19T00:51:44;99042.41;;;18.62;49.22
15880;BME280;61999;51.514;14.614;2022-08-19T00:54:13;99036.84;;;18.57;49.18
15880;BME280;61999;51.514;14.614;2022-08-19T00:56:42;99041.53;;;18.55;49.80
15880;BME280;61999;51.514;14.614;2022-08-19T00:59:12;99037.41;;;18.52;49.52
15880;BME280;61999;51.514;14.614;2022-08-19T01:01:43;99047.28;;;18.52;50.08
15880;BME280;61999;51.514;14.614;2022-08-19T01:04:12;99052.00;;;18.50;49.96
15880;BME280;61999;51.514;14.614;2022-08-19T01:06:40;99056.50;;;18.49;50.35
15880;BME280;61999;51.514;14.614;2022-08-19T01:09:09;99057.53;;;18.48;50.45
15880;BME280;61999;51.514;14.614;2022-08-19T01:11:42;99060.41;;;18.47;50.29
15880;BME280;61999;51.514;14.614;2022-08-19T01:14:13;99067.31;;;18.41;50.14
15880;BME280;61999;51.514;14.614;2022-08-19T01:16:45;99073.03;;;18.32;51.67
15880;BME280;61999;51.514;14.614;2022-08-19T01:19:22;99072.00;;;17.27;56.50
15880;BME280;61999;51.514;14.614;2022-08-19T01:21:57;99082.91;;;16.59;58.41
15880;BME280;61999;51.514;14.614;2022-08-19T01:24:29;99075.00;;;17.02;56.83
15880;BME280;61999;51.514;14.614;2022-08-19T01:26:58;99073.16;;;17.03;57.49
15880;BME280;61999;51.514;14.614;2022-08-19T01:29:26;99079.31;;;16.37;59.14
15880;BME280;61999;51.514;14.614;2022-08-19T01:31:55;99071.84;;;17.13;55.72
15880;BME280;61999;51.514;14.614;2022-08-19T01:34:24;99069.47;;;17.40;54.27
15880;BME280;61999;51.514;14.614;2022-08-19T01:36:52;99066.69;;;17.48;52.98
15880;BME280;61999;51.514;14.614;2022-08-19T01:39:23;99082.66;;;17.48;53.72
15880;BME280;61999;51.514;14.614;2022-08-19T01:41:53;99078.53;;;17.46;53.68
15880;BME280;61999;51.514;14.614;2022-08-19T01:44:21;99081.38;;;17.44;52.84
15880;BME280;61999;51.514;14.614;2022-08-19T01:46:51;99068.06;;;16.50;58.28
15880;BME280;61999;51.514;14.614;2022-08-19T01:49:22;99069.88;;;16.64;57.37
15880;BME280;61999;51.514;14.614;2022-08-19T01:51:51;99080.03;;;16.61;57.35
15880;BME280;61999;51.514;14.614;2022-08-19T01:54:24;99079.03;;;16.77;56.94
15880;BME280;61999;51.514;14.614;2022-08-19T01:56:59;99073.56;;;17.00;55.36
15880;BME280;61999;51.514;14.614;2022-08-19T01:59:29;99068.09;;;17.08;54.21
15880;BME280;61999;51.514;14.614;2022-08-19T02:01:57;99070.38;;;17.11;54.05
15880;BME280;61999;51.514;14.614;2022-08-19T02:04:25;99068.38;;;17.13;54.01
15880;BME280;61999;51.514;14.614;2022-08-19T02:06:53;99083.50;;;17.12;53.74
15880;BME280;61999;51.514;14.614;2022-08-19T02:09:21;99072.84;;;17.12;53.70
15880;BME280;61999;51.514;14.614;2022-08-19T02:11:49;99068.53;;;17.11;53.27
15880;BME280;61999;51.514;14.614;2022-08-19T02:14:19;99071.22;;;17.11;53.40
15880;BME280;61999;51.514;14.614;2022-08-19T02:16:46;99073.22;;;17.09;52.81
15880;BME280;61999;51.514;14.614;2022-08-19T02:19:14;99083.44;;;17.06;53.44
15880;BME280;61999;51.514;14.614;2022-08-19T02:21:42;99086.31;;;17.04;52.56
15880;BME280;61999;51.514;14.614;2022-08-19T02:24:11;99087.50;;;17.02;53.36
15880;BME280;61999;51.514;14.614;2022-08-19T02:26:39;99095.03;;;16.98;53.41
15880;BME280;61999;51.514;14.614;2022-08-19T02:29:08;99078.53;;;16.88;54.12
15880;BME280;61999;51.514;14.614;2022-08-19T02:31:37;99090.00;;;16.88;53.38
15880;BME280;61999;51.514;14.614;2022-08-19T02:34:05;99084.03;;;16.86;52.97
15880;BME280;61999;51.514;14.614;2022-08-19T02:36:33;99081.59;;;16.85;53.11
15880;BME280;61999;51.514;14.614;2022-08-19T02:39:03;99082.41;;;16.85;53.49
15880;BME280;61999;51.514;14.614;2022-08-19T02:41:33;99085.25;;;16.84;53.06
15880;BME280;61999;51.514;14.614;2022-08-19T02:44:03;99086.44;;;16.81;53.26
15880;BME280;61999;51.514;14.614;2022-08-19T02:46:33;99099.31;;;16.78;53.23
15880;BME280;61999;51.514;14.614;2022-08-19T02:49:06;99104.00;;;16.76;53.58
15880;BME280;61999;51.514;14.614;2022-08-19T02:51:39;99106.03;;;16.73;53.21
15880;BME280;61999;51.514;14.614;2022-08-19T02:54:10;99108.03;;;16.71;53.59
15880;BME280;61999;51.514;14.614;2022-08-19T02:56:42;99115.38;;;16.69;53.99
15880;BME280;61999;51.514;14.614;2022-08-19T02:59:10;99108.78;;;16.36;55.64
15880;BME280;61999;51.514;14.614;2022-08-19T03:01:41;99113.63;;;16.47;55.25
15880;BME280;61999;51.514;14.614;2022-08-19T03:04:13;99116.84;;;16.57;55.32
15880;BME280;61999;51.514;14.614;2022-08-19T03:06:45;99122.53;;;15.87;57.71
15880;BME280;61999;51.514;14.614;2022-08-19T03:09:14;99115.16;;;16.26;56.44
15880;BME280;61999;51.514;14.614;2022-08-19T03:11:43;99122.38;;;16.03;57.67
15880;BME280;61999;51.514;14.614;2022-08-19T03:14:12;99116.63;;;16.44;55.59
15880;BME280;61999;51.514;14.614;2022-08-19T03:16:44;99122.06;;;16.36;56.71
15880;BME280;61999;51.514;14.614;2022-08-19T03:19:16;99117.22;;;16.54;55.30
15880;BME280;61999;51.514;14.614;2022-08-19T03:21:45;99109.16;;;16.62;54.78
15880;BME280;61999;51.514;14.614;2022-08-19T03:24:14;99117.88;;;16.71;54.86
15880;BME280;61999;51.514;14.614;2022-08-19T03:26:48;99117.94;;;16.78;54.79
15880;BME280;61999;51.514;14.614;2022-08-19T03:29:18;99112.59;;;16.78;54.30
15880;BME280;61999;51.514;14.614;2022-08-19T03:31:46;99117.13;;;16.77;54.52
15880;BME280;61999;51.514;14.614;2022-08-19T03:34:22;99117.03;;;16.70;54.59
15880;BME280;61999;51.514;14.614;2022-08-19T03:36:54;99114.66;;;16.76;54.00
15880;BME280;61999;51.514;14.614;2022-08-19T03:39:24;99122.38;;;16.70;54.26
15880;BME280;61999;51.514;14.614;2022-08-19T03:41:54;99119.50;;;16.72;54.15
15880;BME280;61999;51.514;14.614;2022-08-19T03:44:24;99119.59;;;16.19;56.54
15880;BME280;61999;51.514;14.614;2022-08-19T03:47:00;99117.22;;;16.24;56.12
15880;BME280;61999;51.514;14.614;2022-08-19T03:49:33;99127.94;;;16.46;54.84
15880;BME280;61999;51.514;14.614;2022-08-19T03:52:03;99124.41;;;16.54;55.08
15880;BME280;61999;51.514;14.614;2022-08-19T03:54:34;99137.31;;;16.57;54.33
15880;BME280;61999;51.514;14.614;2022-08-19T03:57:03;99131.56;;;16.53;55.04
15880;BME280;61999;51.514;14.614;2022-08-19T03:59:35;99145.13;;;16.58;55.06
15880;BME280;61999;51.514;14.614;2022-08-19T04:02:09;99150.44;;;16.58;54.67
15880;BME280;61999;51.514;14.614;2022-08-19T04:04:42;99145.19;;;15.82;58.56
15880;BME280;61999;51.514;14.614;2022-08-19T04:07:13;99146.31;;;15.80;58.77
15880;BME280;61999;51.514;14.614;2022-08-19T04:09:42;99140.41;;;16.31;56.15
15880;BME280;61999;51.514;14.614;2022-08-19T04:12:10;99142.88;;;16.17;57.46
15880;BME280;61999;51.514;14.614;2022-08-19T04:14:38;99137.38;;;16.34;57.01
15880;BME280;61999;51.514;14.614;2022-08-19T04:17:06;99136.88;;;16.53;55.53
15880;BME280;61999;51.514;14.614;2022-08-19T04:19:35;99139.22;;;16.48;56.35
15880;BME280;61999;51.514;14.614;2022-08-19T04:22:05;99143.94;;;16.61;55.75
15880;BME280;61999;51.514;14.614;2022-08-19T04:24:35;99146.50;;;16.69;55.52
15880;BME280;61999;51.514;14.614;2022-08-19T04:27:04;99155.44;;;16.38;57.36
15880;BME280;61999;51.514;14.614;2022-08-19T04:29:33;99156.69;;;16.65;56.08
15880;BME280;61999;51.514;14.614;2022-08-19T04:32:03;99145.66;;;16.39;57.20
15880;BME280;61999;51.514;14.614;2022-08-19T04:34:32;99146.56;;;16.46;56.90
15880;BME280;61999;51.514;14.614;2022-08-19T04:37:00;99146.03;;;16.65;55.92
15880;BME280;61999;51.514;14.614;2022-08-19T04:39:30;99141.00;;;16.70;55.83
15880;BME280;61999;51.514;14.614;2022-08-19T04:42:17;99127.59;;;16.79;55.65
15880;BME280;61999;51.514;14.614;2022-08-19T04:45:04;99126.94;;;16.77;54.99
15880;BME280;61999;51.514;14.614;2022-08-19T04:47:32;99138.47;;;16.24;57.91
15880;BME280;61999;51.514;14.614;2022-08-19T04:50:00;99131.19;;;16.56;56.27
15880;BME280;61999;51.514;14.614;2022-08-19T04:52:28;99135.47;;;16.72;55.66
15880;BME280;61999;51.514;14.614;2022-08-19T04:54:59;99132.59;;;16.44;56.73
15880;BME280;61999;51.514;14.614;2022-08-19T04:57:27;99138.81;;;16.59;56.61
15880;BME280;61999;51.514;14.614;2022-08-19T04:59:56;99138.41;;;16.77;55.29
15880;BME280;61999;51.514;14.614;2022-08-19T05:02:24;99132.81;;;16.27;58.16
15880;BME280;61999;51.514;14.614;2022-08-19T05:04:57;99122.19;;;16.57;56.98
15880;BME280;61999;51.514;14.614;2022-08-19T05:07:27;99123.81;;;16.28;58.28
15880;BME280;61999;51.514;14.614;2022-08-19T05:09:55;99136.19;;;15.83;59.70
15880;BME280;61999;51.514;14.614;2022-08-19T05:12:25;99141.94;;;16.10;58.78
15880;BME280;61999;51.514;14.614;2022-08-19T05:14:54;99143.59;;;15.19;62.25
15880;BME280;61999;51.514;14.614;2022-08-19T05:17:23;99153.66;;;14.20;65.71
15880;BME280;61999;51.514;14.614;2022-08-19T05:19:54;99153.47;;;14.46;65.86
15880;BME280;61999;51.514;14.614;2022-08-19T05:22:40;99160.41;;;14.64;65.56
15880;BME280;61999;51.514;14.614;2022-08-19T05:25:11;99156.84;;;13.99;66.96
15880;BME280;61999;51.514;14.614;2022-08-19T05:27:42;99173.63;;;13.25;70.88
15880;BME280;61999;51.514;14.614;2022-08-19T05:30:11;99168.75;;;14.03;69.37
15880;BME280;61999;51.514;14.614;2022-08-19T05:32:40;99177.31;;;13.48;71.21
15880;BME280;61999;51.514;14.614;2022-08-19T05:35:08;99174.53;;;12.99;73.04
15880;BME280;61999;51.514;14.614;2022-08-19T05:37:37;99179.78;;;12.65;74.46
15880;BME280;61999;51.514;14.614;2022-08-19T05:40:08;99183.66;;;13.80;71.24
15880;BME280;61999;51.514;14.614;2022-08-19T05:42:37;99192.50;;;13.30;71.44
15880;BME280;61999;51.514;14.614;2022-08-19T05:45:08;99200.97;;;12.99;73.63
15880;BME280;61999;51.514;14.614;2022-08-19T05:47:36;99203.00;;;13.64;72.38
15880;BME280;61999;51.514;14.614;2022-08-19T05:50:05;99205.81;;;13.12;73.04
15880;BME280;61999;51.514;14.614;2022-08-19T05:52:33;99212.41;;;12.74;74.57
15880;BME280;61999;51.514;14.614;2022-08-19T05:55:03;99211.34;;;12.92;75.72
15880;BME280;61999;51.514;14.614;2022-08-19T05:57:31;99211.16;;;13.71;72.67
15880;BME280;61999;51.514;14.614;2022-08-19T05:59:59;99219.13;;;13.95;70.11
15880;BME280;61999;51.514;14.614;2022-08-19T06:02:30;99223.06;;;14.40;68.65
15880;BME280;61999;51.514;14.614;2022-08-19T06:04:58;99225.56;;;14.42;68.67
15880;BME280;61999;51.514;14.614;2022-08-19T06:07:26;99232.00;;;13.74;70.77
15880;BME280;61999;51.514;14.614;2022-08-19T06:09:54;99224.41;;;14.28;69.31
15880;BME280;61999;51.514;14.614;2022-08-19T06:12:23;99233.88;;;14.39;69.65
15880;BME280;61999;51.514;14.614;2022-08-19T06:14:57;99232.56;;;14.10;69.65
15880;BME280;61999;51.514;14.614;2022-08-19T06:17:25;99239.09;;;13.65;71.71
15880;BME280;61999;51.514;14.614;2022-08-19T06:19:55;99245.81;;;13.43;73.28
15880;BME280;61999;51.514;14.614;2022-08-19T06:22:23;99237.69;;;13.87;72.07
15880;BME280;61999;51.514;14.614;2022-08-19T06:24:51;99237.25;;;13.66;71.43
15880;BME280;61999;51.514;14.614;2022-08-19T06:27:21;99249.84;;;13.64;72.45
15880;BME280;61999;51.514;14.614;2022-08-19T06:29:49;99253.81;;;13.68;71.88
15880;BME280;61999;51.514;14.614;2022-08-19T06:32:18;99250.91;;;13.79;72.96
15880;BME280;61999;51.514;14.614;2022-08-19T06:34:46;99262.44;;;13.19;73.88
15880;BME280;61999;51.514;14.614;2022-08-19T06:37:15;99269.59;;;13.35;73.83
15880;BME280;61999;51.514;14.614;2022-08-19T06:39:44;99266.72;;;13.63;73.00
15880;BME280;61999;51.514;14.614;2022-08-19T06:42:12;99273.31;;;14.25;70.60
15880;BME280;61999;51.514;14.614;2022-08-19T06:44:44;99280.16;;;14.53;69.36
15880;BME280;61999;51.514;14.614;2022-08-19T06:47:16;99281.44;;;14.65;69.09
15880;BME280;61999;51.514;14.614;2022-08-19T06:49:44;99291.09;;;14.49;68.78
15880;BME280;61999;51.514;14.614;2022-08-19T06:52:13;99290.72;;;14.20;69.99
15880;BME280;61999;51.514;14.614;2022-08-19T06:54:42;99287.38;;;14.75;68.44
15880;BME280;61999;51.514;14.614;2022-08-19T06:57:10;99303.28;;;15.16;67.33
15880;BME280;61999;51.514;14.614;2022-08-19T06:59:41;99303.88;;;15.26;66.01
15880;BME280;61999;51.514;14.614;2022-08-19T07:02:09;99305.25;;;14.98;67.22
15880;BME280;61999;51.514;14.614;2022-08-19T07:04:37;99313.22;;;15.22;65.89
15880;BME280;61999;51.514;14.614;2022-08-19T07:07:11;99305.78;;;13.60;71.88
15880;BME280;61999;51.514;14.614;2022-08-19T07:09:43;99309.41;;;13.51;72.86
15880;BME280;61999;51.514;14.614;2022-08-19T07:12:13;99306.78;;;14.26;71.21
15880;BME280;61999;51.514;14.614;2022-08-19T07:14:42;99312.56;;;14.14;70.22
15880;BME280;61999;51.514;14.614;2022-08-19T07:17:13;99324.88;;;14.80;68.05
15880;BME280;61999;51.514;14.614;2022-08-19T07:19:41;99318.53;;;15.22;67.06
15880;BME280;61999;51.514;14.614;2022-08-19T07:22:10;99319.22;;;14.83;67.29
15880;BME280;61999;51.514;14.614;2022-08-19T07:24:38;99318.41;;;14.75;67.79
15880;BME280;61999;51.514;14.614;2022-08-19T07:27:07;99323.22;;;14.30;69.83
15880;BME280;61999;51.514;14.614;2022-08-19T07:29:37;99329.13;;;13.99;70.55
15880;BME280;61999;51.514;14.614;2022-08-19T07:32:05;99319.59;;;14.64;69.28
15880;BME280;61999;51.514;14.614;2022-08-19T07:34:33;99328.34;;;14.89;67.91
15880;BME280;61999;51.514;14.614;2022-08-19T07:37:05;99334.47;;;15.22;65.65
15880;BME280;61999;51.514;14.614;2022-08-19T07:39:36;99337.66;;;14.60;68.08
15880;BME280;61999;51.514;14.614;2022-08-19T07:42:09;99338.47;;;14.69;68.05
15880;BME280;61999;51.514;14.614;2022-08-19T07:44:37;99345.75;;;15.08;66.81
15880;BME280;61999;51.514;14.614;2022-08-19T07:47:06;99339.94;;;14.31;69.99
15880;BME280;61999;51.514;14.614;2022-08-19T07:49:34;99357.16;;;13.68;71.67
15880;BME280;61999;51.514;14.614;2022-08-19T07:52:07;99348.28;;;13.16;74.75
15880;BME280;61999;51.514;14.614;2022-08-19T07:54:39;99355.59;;;13.23;75.26
15880;BME280;61999;51.514;14.614;2022-08-19T07:57:09;99362.84;;;13.21;75.45
15880;BME280;61999;51.514;14.614;2022-08-19T07:59:37;99369.00;;;12.95;77.01
15880;BME280;61999;51.514;14.614;2022-08-19T08:02:05;99370.72;;;12.86;78.13
15880;BME280;61999;51.514;14.614;2022-08-19T08:04:34;99369.25;;;12.92;80.09
15880;BME280;61999;51.514;14.614;2022-08-19T08:07:20;99389.03;;;12.44;80.65
15880;BME280;61999;51.514;14.614;2022-08-19T08:10:07;99382.44;;;12.48;81.31
15880;BME280;61999;51.514;14.614;2022-08-19T08:12:40;99374.00;;;12.62;81.02
15880;BME280;61999;51.514;14.614;2022-08-19T08:15:12;99378.66;;;12.68;81.17
15880;BME280;61999;51.514;14.614;2022-08-19T08:17:43;99383.53;;;12.55;81.04
15880;BME280;61999;51.514;14.614;2022-08-19T08:20:13;99386.22;;;12.99;79.80
15880;BME280;61999;51.514;14.614;2022-08-19T08:22:43;99383.47;;;12.91;78.66
15880;BME280;61999;51.514;14.614;2022-08-19T08:25:29;99385.81;;;12.94;78.76
15880;BME280;61999;51.514;14.614;2022-08-19T08:27:59;99396.28;;;12.60;79.60
15880;BME280;61999;51.514;14.614;2022-08-19T08:30:29;99382.69;;;12.73;80.23
15880;BME280;61999;51.514;14.614;2022-08-19T08:32:59;99378.13;;;13.27;78.28
15880;BME280;61999;51.514;14.614;2022-08-19T08:35:27;99380.94;;;12.99;78.05
15880;BME280;61999;51.514;14.614;2022-08-19T08:37:55;99394.19;;;13.59;76.63
15880;BME280;61999;51.514;14.614;2022-08-19T08:40:29;99390.81;;;13.49;76.13
15880;BME280;61999;51.514;14.614;2022-08-19T08:43:06;99390.16;;;12.95;77.29
15880;BME280;61999;51.514;14.614;2022-08-19T08:45:40;99391.06;;;12.50;80.74
15880;BME280;61999;51.514;14.614;2022-08-19T08:48:18;99385.22;;;12.82;80.27
15880;BME280;61999;51.514;14.614;2022-08-19T08:50:49;99396.78;;;12.63;79.64
15880;BME280;61999;51.514;14.614;2022-08-19T08:53:20;99395.53;;;12.49;79.52
15880;BME280;61999;51.514;14.614;2022-08-19T08:55:49;99394.69;;;12.49;79.98
15880;BME280;61999;51.514;14.614;2022-08-19T08:58:26;99414.94;;;12.58;79.17
15880;BME280;61999;51.514;14.614;2022-08-19T09:00:57;99405.13;;;12.33;80.74
15880;BME280;61999;51.514;14.614;2022-08-19T09:03:28;99409.56;;;12.32;80.42
15880;BME280;61999;51.514;14.614;2022-08-19T09:06:01;99398.31;;;12.48;80.39
15880;BME280;61999;51.514;14.614;2022-08-19T09:08:45;99414.00;;;12.32;80.42
15880;BME280;61999;51.514;14.614;2022-08-19T09:11:25;99413.06;;;12.51;79.20
15880;BME280;61999;51.514;14.614;2022-08-19T09:14:15;99414.13;;;12.76;78.92
15880;BME280;61999;51.514;14.614;2022-08-19T09:17:06;99403.66;;;12.92;78.59
15880;BME280;61999;51.514;14.614;2022-08-19T09:19:47;99415.47;;;12.62;79.19
15880;BME280;61999;51.514;14.614;2022-08-19T09:22:16;99403.91;;;12.45;80.78
15880;BME280;61999;51.514;14.614;2022-08-19T09:24:44;99388.88;;;12.81;78.73
15880;BME280;61999;51.514;14.614;2022-08-19T09:27:12;99392.66;;;13.23;77.13
15880;BME280;61999;51.514;14.614;2022-08-19T09:29:41;99396.19;;;13.05;76.73
15880;BME280;61999;51.514;14.614;2022-08-19T09:32:09;99395.94;;;13.77;75.63
15880;BME280;61999;51.514;14.614;2022-08-19T09:34:37;99398.84;;;13.66;73.31
15880;BME280;61999;51.514;14.614;2022-08-19T09:37:05;99399.69;;;13.92;72.27
15880;BME280;61999;51.514;14.614;2022-08-19T09:39:33;99409.06;;;13.78;72.31
15880;BME280;61999;51.514;14.614;2022-08-19T09:42:01;99420.69;;;13.59;73.78
15880;BME280;61999;51.514;14.614;2022-08-19T09:44:30;99411.25;;;13.31;75.17
15880;BME280;61999;51.514;14.614;2022-08-19T09:47:01;99400.94;;;13.80;75.05
15880;BME280;61999;51.514;14.614;2022-08-19T09:49:30;99408.22;;;13.26;74.97
15880;BME280;61999;51.514;14.614;2022-08-19T09:51:59;99395.56;;;13.64;74.12
15880;BME280;61999;51.514;14.614;2022-08-19T09:54:27;99387.78;;;14.04;72.70
15880;BME280;61999;51.514;14.614;2022-08-19T09:56:58;99397.47;;;13.53;73.26
15880;BME280;61999;51.514;14.614;2022-08-19T09:59:28;99380.53;;;13.38;75.49
15880;BME280;61999;51.514;14.614;2022-08-19T10:01:57;99376.72;;;13.75;73.78
15880;BME280;61999;51.514;14.614;2022-08-19T10:04:26;99378.13;;;13.87;72.83
15880;BME280;61999;51.514;14.614;2022-08-19T10:07:15;99381.34;;;14.23;72.93
15880;BME280;61999;51.514;14.614;2022-08-19T10:09:43;99380.91;;;13.51;73.47
15880;BME280;61999;51.514;14.614;2022-08-19T10:12:11;99375.06;;;13.74;72.76
15880;BME280;61999;51.514;14.614;2022-08-19T10:14:39;99371.50;;;14.58;71.03
15880;BME280;61999;51.514;14.614;2022-08-19T10:17:07;99383.06;;;14.49;69.68
15880;BME280;61999;51.514;14.614;2022-08-19T10:19:36;99397.84;;;14.60;70.09
15880;BME280;61999;51.514;14.614;2022-08-19T10:22:06;99402.16;;;14.44;69.64
15880;BME280;61999;51.514;14.614;2022-08-19T10:24:34;99404.31;;;15.39;67.63
15880;BME280;61999;51.514;14.614;2022-08-19T10:27:03;99408.25;;;16.07;65.22
15880;BME280;61999;51.514;14.614;2022-08-19T10:29:32;99413.81;;;14.92;67.88
15880;BME280;61999;51.514;14.614;2022-08-19T10:32:03;99419.75;;;15.03;66.60
15880;BME280;61999;51.514;14.614;2022-08-19T10:34:33;99409.66;;;14.98;67.38
15880;BME280;61999;51.514;14.614;2022-08-19T10:37:04;99418.78;;;14.79;67.50
15880;BME280;61999;51.514;14.614;2022-08-19T10:39:35;99413.09;;;14.66;68.81
15880;BME280;61999;51.514;14.614;2022-08-19T10:42:06;99431.19;;;14.54;68.41
15880;BME280;61999;51.514;14.614;2022-08-19T10:44:34;99429.72;;;14.17;69.64
15880;BME280;61999;51.514;14.614;2022-08-19T10:47:04;99426.19;;;14.51;70.09
15880;BME280;61999;51.514;14.614;2022-08-19T10:49:32;99436.63;;;14.44;68.70
15880;BME280;61999;51.514;14.614;2022-08-19T10:52:21;99447.63;;;14.82;67.58
15880;BME280;61999;51.514;14.614;2022-08-19T10:55:00;99450.66;;;14.37;70.14
15880;BME280;61999;51.514;14.614;2022-08-19T10:57:58;99453.59;;;14.76;67.83
15880;BME280;61999;51.514;14.614;2022-08-19T11:00:27;99455.59;;;14.99;67.48
15880;BME280;61999;51.514;14.614;2022-08-19T11:02:55;99464.03;;;14.61;68.07
15880;BME280;61999;51.514;14.614;2022-08-19T11:05:23;99459.22;;;14.65;67.83
15880;BME280;61999;51.514;14.614;2022-08-19T11:07:53;99461.25;;;15.28;66.95
15880;BME280;61999;51.514;14.614;2022-08-19T11:10:21;99456.63;;;15.30;66.01
15880;BME280;61999;51.514;14.614;2022-08-19T11:12:50;99467.16;;;15.71;65.19
15880;BME280;61999;51.514;14.614;2022-08-19T11:15:21;99470.03;;;15.53;65.42
15880;BME280;61999;51.514;14.614;2022-08-19T11:17:51;99460.81;;;15.80;64.84
15880;BME280;61999;51.514;14.614;2022-08-19T11:20:21;99472.19;;;15.09;65.65
15880;BME280;61999;51.514;14.614;2022-08-19T11:22:52;99480.19;;;15.50;65.15
15880;BME280;61999;51.514;14.614;2022-08-19T11:25:20;99479.16;;;15.59;65.90
15880;BME280;61999;51.514;14.614;2022-08-19T11:27:48;99487.72;;;16.02;64.60
15880;BME280;61999;51.514;14.614;2022-08-19T11:30:18;99482.53;;;16.40;61.64
15880;BME280;61999;51.514;14.614;2022-08-19T11:32:46;99485.25;;;16.32;63.07
15880;BME280;61999;51.514;14.614;2022-08-19T11:35:15;99494.09;;;16.24;63.32
15880;BME280;61999;51.514;14.614;2022-08-19T11:37:47;99480.78;;;14.86;66.77
15880;BME280;61999;51.514;14.614;2022-08-19T11:40:16;99486.81;;;15.05;66.68
15880;BME280;61999;51.514;14.614;2022-08-19T11:42:44;99486.13;;;15.44;65.09
15880;BME280;61999;51.514;14.614;2022-08-19T11:45:30;99482.66;;;15.02;67.04
15880;BME280;61999;51.514;14.614;2022-08-19T11:47:58;99485.50;;;15.50;65.75
15880;BME280;61999;51.514;14.614;2022-08-19T11:50:26;99493.81;;;15.22;65.51
15880;BME280;61999;51.514;14.614;2022-08-19T11:52:55;99493.75;;;15.06;67.14
15880;BME280;61999;51.514;14.614;2022-08-19T11:55:24;99504.19;;;16.37;63.05
15880;BME280;61999;51.514;14.614;2022-08-19T11:57:53;99502.63;;;16.11;62.36
15880;BME280;61999;51.514;14.614;2022-08-19T12:00:21;99502.94;;;16.16;63.33
15880;BME280;61999;51.514;14.614;2022-08-19T12:02:49;99500.06;;;15.62;63.79
15880;BME280;61999;51.514;14.614;2022-08-19T12:05:17;99500.38;;;15.83;64.27
15880;BME280;61999;51.514;14.614;2022-08-19T12:07:45;99500.34;;;15.75;63.91
15880;BME280;61999;51.514;14.614;2022-08-19T12:10:13;99502.41;;;15.57;64.66
15880;BME280;61999;51.514;14.614;2022-08-19T12:12:42;99504.16;;;15.81;64.23
15880;BME280;61999;51.514;14.614;2022-08-19T12:15:12;99504.41;;;15.47;64.79
15880;BME280;61999;51.514;14.614;2022-08-19T12:17:41;99501.22;;;15.76;63.55
15880;BME280;61999;51.514;14.614;2022-08-19T12:20:11;99496.38;;;15.79;64.33
15880;BME280;61999;51.514;14.614;2022-08-19T12:22:42;99500.34;;;15.75;63.88
15880;BME280;61999;51.514;14.614;2022-08-19T12:25:11;99499.56;;;16.31;62.14
15880;BME280;61999;51.514;14.614;2022-08-19T12:27:39;99492.31;;;16.16;61.86
15880;BME280;61999;51.514;14.614;2022-08-19T12:30:12;99493.81;;;16.11;62.82
15880;BME280;61999;51.514;14.614;2022-08-19T12:32:40;99498.47;;;16.09;62.61
15880;BME280;61999;51.514;14.614;2022-08-19T12:35:09;99494.38;;;15.90;62.90
15880;BME280;61999;51.514;14.614;2022-08-19T12:37:38;99501.97;;;16.09;61.49
15880;BME280;61999;51.514;14.614;2022-08-19T12:40:12;99490.13;;;15.23;64.87
15880;BME280;61999;51.514;14.614;2022-08-19T12:42:41;99500.31;;;16.08;62.92
15880;BME280;61999;51.514;14.614;2022-08-19T12:45:13;99493.94;;;15.70;63.05
15880;BME280;61999;51.514;14.614;2022-08-19T12:47:41;99492.16;;;16.10;62.95
15880;BME280;61999;51.514;14.614;2022-08-19T12:50:09;99509.84;;;16.34;61.87
15880;BME280;61999;51.514;14.614;2022-08-19T12:52:38;99491.78;;;15.57;64.22
15880;BME280;61999;51.514;14.614;2022-08-19T12:55:09;99508.34;;;15.83;63.93
15880;BME280;61999;51.514;14.614;2022-08-19T12:57:38;99491.44;;;15.60;64.27
15880;BME280;61999;51.514;14.614;2022-08-19T13:00:13;99494.13;;;15.35;65.54
15880;BME280;61999;51.514;14.614;2022-08-19T13:02:44;99492.06;;;15.78;64.04
15880;BME280;61999;51.514;14.614;2022-08-19T13:05:16;99494.16;;;16.47;62.15
15880;BME280;61999;51.514;14.614;2022-08-19T13:07:47;99496.91;;;15.83;63.65